createdAt,value
2023-04-19T00:01:48.778Z,6.60
2023-04-19T00:04:17.115Z,7.23
2023-04-19T00:06:46.222Z,6.30
2023-04-19T00:09:14.218Z,6.70
2023-04-19T00:11:42.144Z,7.20
2023-04-19T00:14:10.059Z,7.13
2023-04-19T00:16:39.393Z,6.13
2023-04-19T00:19:07.498Z,6.50
2023-04-19T00:21:35.439Z,6.20
2023-04-19T00:24:03.742Z,6.47
2023-04-19T00:26:31.659Z,7.07
2023-04-19T00:28:59.574Z,7.37
2023-04-19T00:31:27.606Z,8.10
2023-04-19T00:33:57.706Z,6.57
2023-04-19T00:36:26.746Z,7.23
2023-04-19T00:38:54.722Z,6.90
2023-04-19T00:41:22.639Z,6.13
2023-04-19T00:43:50.608Z,7.00
2023-04-19T00:46:18.590Z,5.70
2023-04-19T00:48:46.558Z,6.20
2023-04-19T00:51:15.882Z,5.50
2023-04-19T00:53:44.579Z,6.20
2023-04-19T00:56:12.544Z,7.50
2023-04-19T00:58:40.501Z,5.63
2023-04-19T01:01:08.497Z,6.70
2023-04-19T01:03:37.002Z,6.33
2023-04-19T01:06:05.173Z,6.00
2023-04-19T01:08:34.491Z,6.17
2023-04-19T01:11:02.659Z,6.87
2023-04-19T01:13:30.604Z,6.10
2023-04-19T01:15:58.974Z,6.77
2023-04-19T01:18:32.857Z,7.13
2023-04-19T01:21:00.836Z,5.80
2023-04-19T01:23:30.125Z,7.70
2023-04-19T01:25:58.071Z,6.13
2023-04-19T01:28:25.996Z,6.30
2023-04-19T01:30:54.825Z,6.20
2023-04-19T01:33:22.789Z,6.03
2023-04-19T01:35:50.779Z,6.50
2023-04-19T01:38:18.715Z,6.40
2023-04-19T01:40:48.067Z,7.03
2023-04-19T01:43:17.738Z,6.70
2023-04-19T01:45:45.677Z,7.20
2023-04-19T01:48:13.612Z,10.13
2023-04-19T01:50:41.639Z,8.40
2023-04-19T01:53:09.564Z,7.67
2023-04-19T01:55:37.478Z,7.30
2023-04-19T01:58:07.353Z,7.33
2023-04-19T02:00:35.391Z,6.50
2023-04-19T02:03:03.541Z,8.63
2023-04-19T02:05:31.621Z,8.40
2023-04-19T02:08:01.280Z,9.20
2023-04-19T02:10:29.208Z,9.50
2023-04-19T02:12:57.101Z,8.50
2023-04-19T02:15:26.480Z,7.90
2023-04-19T02:17:54.471Z,9.07
2023-04-19T02:20:24.036Z,6.90
2023-04-19T02:22:52.012Z,8.13
2023-04-19T02:25:20.227Z,7.93
2023-04-19T02:27:48.105Z,8.77
2023-04-19T02:30:16.277Z,9.10
2023-04-19T02:32:45.678Z,7.63
2023-04-19T02:35:14.034Z,7.60
2023-04-19T02:37:42.016Z,7.23
2023-04-19T02:40:10.468Z,8.37
2023-04-19T02:42:38.512Z,8.63
2023-04-19T02:45:07.494Z,9.27
2023-04-19T02:47:35.488Z,8.13
2023-04-19T02:50:05.197Z,8.77
2023-04-19T02:52:33.084Z,7.30
2023-04-19T02:55:01.011Z,7.47
2023-04-19T02:57:28.970Z,8.00
2023-04-19T02:59:56.911Z,8.10
2023-04-19T03:02:24.884Z,8.23
2023-04-19T03:04:54.096Z,6.90
2023-04-19T03:07:23.978Z,7.97
2023-04-19T03:09:52.056Z,8.47
2023-04-19T03:12:20.019Z,6.40
2023-04-19T03:14:47.942Z,9.20
2023-04-19T03:17:16.525Z,8.53
2023-04-19T03:19:44.568Z,8.87
2023-04-19T03:22:12.464Z,9.10
2023-04-19T03:24:41.905Z,9.27
2023-04-19T03:27:09.850Z,7.83
2023-04-19T03:29:37.790Z,8.00
2023-04-19T03:32:05.849Z,8.37
2023-04-19T03:34:33.809Z,8.43
2023-04-19T03:37:01.778Z,8.50
2023-04-19T03:39:29.737Z,6.97
2023-04-19T03:41:59.073Z,8.03
2023-04-19T03:44:27.033Z,6.80
2023-04-19T03:46:55.026Z,6.80
2023-04-19T03:49:23.034Z,7.40
2023-04-19T03:51:50.981Z,9.00
2023-04-19T03:54:18.952Z,7.13
2023-04-19T03:56:46.872Z,6.77
2023-04-19T03:59:16.225Z,6.97
2023-04-19T04:01:44.165Z,6.80
2023-04-19T04:04:12.964Z,7.83
2023-04-19T04:06:41.081Z,6.73
2023-04-19T04:09:09.085Z,7.40
2023-04-19T04:11:36.999Z,8.50
2023-04-19T04:14:05.303Z,7.70
2023-04-19T04:16:34.594Z,8.00
2023-04-19T04:19:02.550Z,7.90
2023-04-19T04:21:30.732Z,9.10
2023-04-19T04:23:58.738Z,8.70
2023-04-19T04:26:30.773Z,8.07
2023-04-19T04:28:58.742Z,7.63
2023-04-19T04:31:27.230Z,8.03
2023-04-19T04:33:56.600Z,8.57
2023-04-19T04:36:26.010Z,8.70
2023-04-19T04:38:53.945Z,6.17
2023-04-19T04:41:22.951Z,6.53
2023-04-19T04:44:04.612Z,7.23
2023-04-19T04:46:39.018Z,7.93
2023-04-19T04:49:08.441Z,7.60
2023-04-19T04:51:37.306Z,7.20
2023-04-19T04:54:05.705Z,7.70
2023-04-19T04:56:33.674Z,7.93
2023-04-19T04:59:01.628Z,7.60
2023-04-19T05:01:29.588Z,7.77
2023-04-19T05:03:57.540Z,7.50
2023-04-19T05:06:27.331Z,7.47
2023-04-19T05:08:55.233Z,7.93
2023-04-19T05:11:23.177Z,7.77
2023-04-19T05:13:51.126Z,7.47
2023-04-19T05:16:19.868Z,8.43
2023-04-19T05:18:47.849Z,7.20
2023-04-19T05:21:15.794Z,6.97
2023-04-19T05:23:45.116Z,6.97
2023-04-19T05:26:15.329Z,7.70
2023-04-19T05:28:43.350Z,8.60
2023-04-19T05:31:11.327Z,6.33
2023-04-19T05:33:39.310Z,6.83
2023-04-19T05:36:07.806Z,7.63
2023-04-19T05:38:35.795Z,7.70
2023-04-19T05:41:05.288Z,7.10
2023-04-19T05:43:33.210Z,7.33
2023-04-19T05:46:01.162Z,7.90
2023-04-19T05:48:29.228Z,8.63
2023-04-19T05:50:58.073Z,8.50
2023-04-19T05:53:26.048Z,9.27
2023-04-19T05:55:54.026Z,8.73
2023-04-19T05:58:23.394Z,7.93
2023-04-19T06:00:52.412Z,9.13
2023-04-19T06:03:20.636Z,9.80
2023-04-19T06:05:48.808Z,7.43
2023-04-19T06:08:17.730Z,8.70
2023-04-19T06:10:54.667Z,10.37
2023-04-19T06:13:26.179Z,11.93
2023-04-19T06:15:54.185Z,10.13
2023-04-19T06:18:22.178Z,8.37
2023-04-19T06:20:50.133Z,9.20
2023-04-19T06:23:18.747Z,7.80
2023-04-19T06:25:48.757Z,7.47
2023-04-19T06:28:17.018Z,8.97
2023-04-19T06:30:46.301Z,6.90
2023-04-19T06:33:14.231Z,7.10
2023-04-19T06:35:42.165Z,7.13
2023-04-19T06:38:10.187Z,7.60
2023-04-19T06:40:38.174Z,7.90
2023-04-19T06:43:06.175Z,9.47
2023-04-19T06:45:34.302Z,7.80
2023-04-19T06:48:03.667Z,6.63
2023-04-19T06:50:31.701Z,7.60
2023-04-19T06:52:59.828Z,7.20
2023-04-19T06:55:27.752Z,7.87
2023-04-19T06:57:56.831Z,6.17
2023-04-19T07:00:24.910Z,6.27
2023-04-19T07:02:52.940Z,6.33
2023-04-19T07:05:22.405Z,6.40
2023-04-19T07:07:50.316Z,7.43
2023-04-19T07:10:18.469Z,6.77
2023-04-19T07:12:46.394Z,7.10
2023-04-19T07:15:14.336Z,6.43
2023-04-19T07:17:42.312Z,6.83
2023-04-19T07:20:11.118Z,6.33
2023-04-19T07:22:40.440Z,6.07
2023-04-19T07:25:09.450Z,7.00
2023-04-19T07:27:37.340Z,5.87
2023-04-19T07:30:06.076Z,5.90
2023-04-19T07:32:34.153Z,6.60
2023-04-19T07:35:02.426Z,5.97
2023-04-19T07:37:31.374Z,5.57
2023-04-19T07:40:00.668Z,5.73
2023-04-19T07:42:28.810Z,5.50
2023-04-19T07:44:56.706Z,6.50
2023-04-19T07:47:24.660Z,5.93
2023-04-19T07:49:53.454Z,5.57
2023-04-19T07:52:21.412Z,8.30
2023-04-19T07:54:49.373Z,6.43
2023-04-19T07:57:18.632Z,5.13
2023-04-19T07:59:46.538Z,5.53
2023-04-19T08:02:16.598Z,4.83
2023-04-19T08:04:45.700Z,8.53
2023-04-19T08:07:13.907Z,6.47
2023-04-19T08:09:41.978Z,5.37
2023-04-19T08:12:12.625Z,5.47
2023-04-19T08:14:56.522Z,4.67
2023-04-19T08:17:36.713Z,4.80
2023-04-19T08:20:11.638Z,5.20
2023-04-19T08:22:40.846Z,5.53
2023-04-19T08:25:09.870Z,4.10
2023-04-19T08:27:37.850Z,6.07
2023-04-19T08:30:09.306Z,5.40
2023-04-19T08:32:37.745Z,5.10
2023-04-19T08:35:08.355Z,4.87
2023-04-19T08:37:36.371Z,5.13
2023-04-19T08:40:05.518Z,4.63
2023-04-19T08:42:36.885Z,4.23
2023-04-19T08:47:48.242Z,4.77
2023-04-19T08:50:33.332Z,4.17
2023-04-19T08:55:34.739Z,2.83
2023-04-19T08:58:04.010Z,2.70
2023-04-19T09:00:35.399Z,4.40
2023-04-19T09:03:03.566Z,2.80
2023-04-19T09:05:32.066Z,2.90
2023-04-19T09:08:21.861Z,2.20
2023-04-19T09:10:54.512Z,2.40
2023-04-19T09:13:22.415Z,2.60
2023-04-19T09:15:53.587Z,2.43
2023-04-19T09:18:21.654Z,3.07
2023-04-19T09:20:49.645Z,3.60
2023-04-19T09:23:19.245Z,3.70
2023-04-19T09:28:28.932Z,3.83
2023-04-19T09:31:05.668Z,2.60
2023-04-19T09:33:45.247Z,4.40
2023-04-19T09:36:14.586Z,3.40
2023-04-19T09:38:47.851Z,2.60
2023-04-19T09:41:15.865Z,2.63
2023-04-19T09:43:58.923Z,2.70
2023-04-19T09:46:33.937Z,3.77
2023-04-19T09:49:27.246Z,3.47
2023-04-19T09:51:58.624Z,3.13
2023-04-19T09:54:27.490Z,3.20
2023-04-19T09:56:57.883Z,2.80
2023-04-19T09:59:26.377Z,3.10
2023-04-19T10:01:56.454Z,3.07
2023-04-19T10:04:36.299Z,2.73
2023-04-19T10:09:51.746Z,2.53
2023-04-19T10:14:58.949Z,3.20
2023-04-19T10:17:28.306Z,3.10
2023-04-19T10:19:58.974Z,3.30
2023-04-19T10:22:26.889Z,2.40
2023-04-19T10:25:12.983Z,4.40
2023-04-19T10:27:42.130Z,2.90
2023-04-19T10:30:18.196Z,2.17
2023-04-19T10:32:53.424Z,3.10
2023-04-19T10:35:22.109Z,3.10
2023-04-19T10:38:07.017Z,5.20
2023-04-19T10:40:57.220Z,3.90
2023-04-19T10:43:25.432Z,3.17
2023-04-19T10:45:53.496Z,2.43
2023-04-19T10:48:39.589Z,3.20
2023-04-19T10:51:14.509Z,2.70
2023-04-19T10:53:53.174Z,2.23
2023-04-19T10:56:22.627Z,2.50
2023-04-19T10:59:26.776Z,3.10
2023-04-19T11:01:56.132Z,3.83
2023-04-19T11:04:41.258Z,3.20
2023-04-19T11:07:09.350Z,2.50
2023-04-19T11:09:39.009Z,3.10
2023-04-19T11:12:08.891Z,3.53
2023-04-19T11:14:38.418Z,2.67
2023-04-19T11:17:16.306Z,2.40
2023-04-19T11:19:46.737Z,2.70
2023-04-19T11:22:14.693Z,3.10
2023-04-19T11:24:48.239Z,3.07
2023-04-19T11:27:16.184Z,1.87
2023-04-19T11:29:44.106Z,3.90
2023-04-19T11:32:12.080Z,3.30
2023-04-19T11:34:40.174Z,2.30
2023-04-19T11:37:09.746Z,2.50
2023-04-19T11:39:46.902Z,2.90
2023-04-19T11:42:21.091Z,2.20
2023-04-19T11:44:52.813Z,2.73
2023-04-19T11:47:20.923Z,2.00
2023-04-19T11:49:48.879Z,4.33
2023-04-19T11:52:23.593Z,2.20
2023-04-19T11:54:52.595Z,1.87
2023-04-19T11:57:30.099Z,2.20
2023-04-19T12:00:07.992Z,2.40
2023-04-19T12:02:39.176Z,3.40
2023-04-19T12:05:11.640Z,3.20
2023-04-19T12:07:55.933Z,2.73
2023-04-19T12:10:23.996Z,2.43
2023-04-19T12:12:51.950Z,2.43
2023-04-19T12:15:21.272Z,2.10
2023-04-19T12:17:58.388Z,1.80
2023-04-19T12:20:33.391Z,2.20
2023-04-19T12:23:02.776Z,1.53
2023-04-19T12:25:31.313Z,2.00
2023-04-19T12:27:59.428Z,2.47
2023-04-19T12:30:27.573Z,2.43
2023-04-19T12:32:56.373Z,2.63
2023-04-19T12:35:25.461Z,2.00
2023-04-19T12:37:53.600Z,2.90
2023-04-19T12:40:22.912Z,2.13
2023-04-19T12:42:50.840Z,1.60
2023-04-19T12:45:19.054Z,2.23
2023-04-19T12:47:47.846Z,2.27
2023-04-19T12:50:16.125Z,2.83
2023-04-19T12:52:45.063Z,2.40
2023-04-19T12:55:13.055Z,3.30
2023-04-19T12:57:42.745Z,2.77
2023-04-19T13:00:12.532Z,2.80
2023-04-19T13:02:40.550Z,2.00
2023-04-19T13:05:09.161Z,1.97
2023-04-19T13:07:37.145Z,2.90
2023-04-19T13:10:06.113Z,2.73
2023-04-19T13:12:34.085Z,2.17
2023-04-19T13:15:04.671Z,1.80
2023-04-19T13:17:33.094Z,2.23
2023-04-19T13:20:01.062Z,2.13
2023-04-19T13:22:29.028Z,2.10
2023-04-19T13:24:56.941Z,2.10
2023-04-19T13:27:24.889Z,2.50
2023-04-19T13:29:52.858Z,2.93
2023-04-19T13:32:22.200Z,2.60
2023-04-19T13:34:50.184Z,4.33
2023-04-19T13:37:18.123Z,2.37
2023-04-19T13:39:46.076Z,3.30
2023-04-19T13:42:14.751Z,2.67
2023-04-19T13:44:42.692Z,2.83
2023-04-19T13:47:10.781Z,4.47
2023-04-19T13:49:40.486Z,2.33
2023-04-19T13:52:08.432Z,3.30
2023-04-19T13:54:36.399Z,2.67
2023-04-19T13:57:04.308Z,2.30
2023-04-19T13:59:32.250Z,2.73
2023-04-19T14:02:00.290Z,2.67
2023-04-19T14:04:28.448Z,3.50
2023-04-19T14:06:57.879Z,2.87
2023-04-19T14:09:25.985Z,2.63
2023-04-19T14:11:54.089Z,3.23
2023-04-19T14:14:22.045Z,3.37
2023-04-19T14:16:50.263Z,2.90
2023-04-19T14:19:18.267Z,2.37
2023-04-19T14:21:46.189Z,2.97
2023-04-19T14:24:16.119Z,3.30
2023-04-19T14:26:44.180Z,3.20
2023-04-19T14:29:12.142Z,2.60
2023-04-19T14:31:40.153Z,2.40
2023-04-19T14:34:08.178Z,2.50
2023-04-19T14:36:36.158Z,2.67
2023-04-19T14:39:04.107Z,2.50
2023-04-19T14:41:33.409Z,2.33
2023-04-19T14:44:01.459Z,3.03
2023-04-19T14:46:29.537Z,2.90
2023-04-19T14:49:03.301Z,2.40
2023-04-19T14:51:31.817Z,2.73
2023-04-19T14:53:59.923Z,2.60
2023-04-19T14:56:27.845Z,2.70
2023-04-19T14:58:57.137Z,2.40
2023-04-19T15:01:25.108Z,2.53
2023-04-19T15:03:53.292Z,2.00
2023-04-19T15:06:21.387Z,2.30
2023-04-19T15:08:49.321Z,2.50
2023-04-19T15:11:17.234Z,2.33
2023-04-19T15:13:45.207Z,2.30
2023-04-19T15:16:14.590Z,2.90
2023-04-19T15:18:42.601Z,3.67
2023-04-19T15:21:10.509Z,3.07
2023-04-19T15:23:38.487Z,2.30
2023-04-19T15:26:06.689Z,3.10
2023-04-19T15:28:36.145Z,4.10
2023-04-19T15:31:04.887Z,3.13
2023-04-19T15:33:34.236Z,3.23
2023-04-19T15:36:02.221Z,3.57
2023-04-19T15:38:31.055Z,2.67
2023-04-19T15:40:59.443Z,2.43
2023-04-19T15:43:27.397Z,3.23
2023-04-19T15:45:55.373Z,2.90
2023-04-19T15:48:23.348Z,2.60
2023-04-19T15:50:52.635Z,4.27
2023-04-19T15:53:20.678Z,9.80
2023-04-19T15:55:48.678Z,6.57
2023-04-19T15:58:16.640Z,9.30
2023-04-19T16:00:44.675Z,8.90
2023-04-19T16:03:13.019Z,7.60
2023-04-19T16:05:41.225Z,7.33
2023-04-19T16:08:11.676Z,7.20
2023-04-19T16:10:39.896Z,4.53
2023-04-19T16:13:07.883Z,3.87
2023-04-19T16:15:36.057Z,4.83
2023-04-19T16:18:04.088Z,6.50
2023-04-19T16:20:32.163Z,4.80
2023-04-19T16:23:03.362Z,11.13
2023-04-19T16:25:32.741Z,14.10
2023-04-19T16:28:00.880Z,12.30
2023-04-19T16:30:28.852Z,12.07
2023-04-19T16:32:57.005Z,11.80
2023-04-19T16:35:25.055Z,8.33
2023-04-19T16:37:55.863Z,6.87
2023-04-19T16:40:25.256Z,3.40
2023-04-19T16:42:54.598Z,6.20
2023-04-19T16:45:22.570Z,11.87
2023-04-19T16:47:50.591Z,10.20
2023-04-19T16:50:19.125Z,15.77
2023-04-19T16:52:47.131Z,20.13
2023-04-19T16:55:15.661Z,22.47
2023-04-19T16:57:43.668Z,13.57
2023-04-19T17:00:14.401Z,11.40
2023-04-19T17:02:42.420Z,9.30
2023-04-19T17:05:12.729Z,7.17
2023-04-19T17:07:40.796Z,6.40
2023-04-19T17:10:09.831Z,10.93
2023-04-19T17:12:37.762Z,15.70
2023-04-19T17:15:06.843Z,10.47
2023-04-19T17:17:36.231Z,8.87
2023-04-19T17:20:05.977Z,6.53
2023-04-19T17:22:33.909Z,8.77
2023-04-19T17:25:01.822Z,10.50
2023-04-19T17:27:29.726Z,15.70
2023-04-19T17:29:57.686Z,15.67
2023-04-19T17:32:25.661Z,8.17
2023-04-19T17:34:54.986Z,8.37
2023-04-19T17:37:22.970Z,7.37
2023-04-19T17:39:50.973Z,7.40
2023-04-19T17:42:18.945Z,6.63
2023-04-19T17:44:47.309Z,5.33
2023-04-19T17:47:15.282Z,5.43
2023-04-19T17:49:45.845Z,5.80
2023-04-19T17:52:15.248Z,5.93
2023-04-19T17:54:43.183Z,5.87
2023-04-19T17:57:11.157Z,6.60
2023-04-19T17:59:39.110Z,6.10
2023-04-19T18:02:10.156Z,5.90
2023-04-19T18:04:39.560Z,5.10
2023-04-19T18:07:07.581Z,5.60
2023-04-19T18:09:36.910Z,5.90
2023-04-19T18:12:05.817Z,4.70
2023-04-19T18:14:33.789Z,4.53
2023-04-19T18:17:02.146Z,4.40
2023-04-19T18:19:30.147Z,3.30
2023-04-19T18:21:58.265Z,3.60
2023-04-19T18:24:26.237Z,4.50
2023-04-19T18:26:55.558Z,4.90
2023-04-19T18:29:24.371Z,6.00
2023-04-19T18:31:52.967Z,4.80
2023-04-19T18:34:21.009Z,3.90
2023-04-19T18:36:49.052Z,4.50
2023-04-19T18:39:18.833Z,4.50
2023-04-19T18:41:46.996Z,3.90
2023-04-19T18:44:38.891Z,3.73
2023-04-19T18:47:04.500Z,3.40
2023-04-19T18:49:32.858Z,4.43
2023-04-19T18:52:00.824Z,5.47
2023-04-19T18:54:28.828Z,4.83
2023-04-19T18:57:21.950Z,4.67
2023-04-19T18:59:46.383Z,4.03
2023-04-19T19:02:14.410Z,4.53
2023-04-19T19:04:51.889Z,4.10
2023-04-19T19:07:35.569Z,3.90
2023-04-19T19:10:17.045Z,4.30
2023-04-19T19:12:46.792Z,4.33
2023-04-19T19:15:16.105Z,4.20
2023-04-19T19:17:49.238Z,5.27
2023-04-19T19:20:18.617Z,4.30
2023-04-19T19:22:46.590Z,4.47
2023-04-19T19:25:14.560Z,5.53
2023-04-19T19:27:58.306Z,4.87
2023-04-19T19:30:33.943Z,4.30
2023-04-19T19:33:02.543Z,4.90
2023-04-19T19:35:30.673Z,4.20
2023-04-19T19:37:58.715Z,3.80
2023-04-19T19:40:31.194Z,4.30
2023-04-19T19:43:00.768Z,3.73
2023-04-19T19:45:29.398Z,4.03
2023-04-19T19:48:00.027Z,4.90
2023-04-19T19:53:00.279Z,4.33
2023-04-19T19:55:28.555Z,5.07
2023-04-19T20:02:59.640Z,5.43
2023-04-19T20:05:28.716Z,4.63
2023-04-19T20:08:06.114Z,5.10
2023-04-19T20:10:34.126Z,4.20
2023-04-19T20:13:02.471Z,5.50
2023-04-19T20:15:31.083Z,5.00
2023-04-19T20:18:00.516Z,6.40
2023-04-19T20:20:28.544Z,5.67
2023-04-19T20:22:56.565Z,5.57
2023-04-19T20:25:24.525Z,5.80
2023-04-19T20:27:52.551Z,5.80
2023-04-19T20:30:20.504Z,6.03
2023-04-19T20:32:50.322Z,5.93
2023-04-19T20:35:19.931Z,5.50
2023-04-19T20:37:47.959Z,4.77
2023-04-19T20:40:16.334Z,4.50
2023-04-19T20:42:45.049Z,3.63
2023-04-19T20:45:14.387Z,4.70
2023-04-19T20:47:42.819Z,5.37
2023-04-19T20:50:11.384Z,5.20
2023-04-19T20:52:41.317Z,6.03
2023-04-19T20:55:10.211Z,5.60
2023-04-19T20:57:38.185Z,4.57
2023-04-19T21:00:08.735Z,5.63
2023-04-19T21:02:36.833Z,4.20
2023-04-19T21:05:05.189Z,3.53
2023-04-19T21:07:33.647Z,4.33
2023-04-19T21:10:03.000Z,4.70
2023-04-19T21:12:30.943Z,3.17
2023-04-19T21:14:58.914Z,3.50
2023-04-19T21:17:27.189Z,3.23
2023-04-19T21:19:55.151Z,3.27
2023-04-19T21:22:23.093Z,2.93
2023-04-19T21:24:51.069Z,3.00
2023-04-19T21:27:20.575Z,3.17
2023-04-19T21:29:48.541Z,3.17
2023-04-19T21:32:25.873Z,3.33
2023-04-19T21:34:53.878Z,3.30
2023-04-19T21:37:21.920Z,3.20
2023-04-19T21:39:50.481Z,2.73
2023-04-19T21:42:18.454Z,2.87
2023-04-19T21:44:47.753Z,3.27
2023-04-19T21:47:15.674Z,2.67
2023-04-19T21:49:43.580Z,3.23
2023-04-19T21:52:11.510Z,3.37
2023-04-19T21:54:39.482Z,3.70
2023-04-19T21:57:07.434Z,4.13
2023-04-19T21:59:36.038Z,3.97
2023-04-19T22:02:05.501Z,4.00
2023-04-19T22:04:33.533Z,4.50
2023-04-19T22:07:02.980Z,4.80
2023-04-19T22:09:31.362Z,4.83
2023-04-19T22:12:00.269Z,5.50
2023-04-19T22:14:28.507Z,5.03
2023-04-19T22:16:56.753Z,5.20
2023-04-19T22:19:26.213Z,5.70
2023-04-19T22:21:55.154Z,4.50
2023-04-19T22:24:23.333Z,5.07
2023-04-19T22:26:53.082Z,4.57
2023-04-19T22:29:21.466Z,5.50
2023-04-19T22:31:49.610Z,4.10
2023-04-19T22:34:17.634Z,4.83
2023-04-19T22:36:47.235Z,4.40
2023-04-19T22:39:25.773Z,4.00
2023-04-19T22:42:02.598Z,5.77
2023-04-19T22:44:45.966Z,3.03
2023-04-19T22:47:20.376Z,3.03
2023-04-19T22:50:02.083Z,3.00
2023-04-19T22:52:44.599Z,3.07
2023-04-19T22:55:17.876Z,2.60
2023-04-19T22:58:06.471Z,3.50
2023-04-19T23:00:48.473Z,3.17
2023-04-19T23:03:31.577Z,2.77
2023-04-19T23:06:11.487Z,2.27
2023-04-19T23:08:41.480Z,2.70
2023-04-19T23:11:10.132Z,2.60
2023-04-19T23:13:41.397Z,2.73
2023-04-19T23:16:10.860Z,2.67
2023-04-19T23:18:40.241Z,2.80
2023-04-19T23:21:08.655Z,2.80
2023-04-19T23:23:36.702Z,2.40
2023-04-19T23:26:06.055Z,3.90
2023-04-19T23:28:34.006Z,3.37
2023-04-19T23:31:01.986Z,3.63
2023-04-19T23:33:29.958Z,3.07
2023-04-19T23:35:57.922Z,4.03
2023-04-19T23:38:25.944Z,3.43
2023-04-19T23:40:53.932Z,4.00
2023-04-19T23:43:23.233Z,3.17
2023-04-19T23:45:51.236Z,3.30
2023-04-19T23:48:19.180Z,3.50
2023-04-19T23:50:47.138Z,3.47
2023-04-19T23:53:15.099Z,3.20
2023-04-19T23:55:43.052Z,3.03
2023-04-19T23:58:10.999Z,2.87
